CYBD

Bella Coola Airport

Bella Coola, , Canada
METAR CYBD 211700Z 24004KT 210V290 2SM -SN OVC015 00/00 A2936 RMK SC8 EQPT ON RWY SLP946
Observed Flight Rules
Jan-21 @ 17:00 UTC (59 minutes ago) Instrument Flight Rules
Wind Visibility Clouds Conditions
240° at 4 knots 2 miles
  • Overcast at 1,500' AGL
  • Light Snow
Temperatures Readings
Current 0°C / 32°F
Dewpoint 0°C / 32°F
Humidity 100%
Altimeter 29.36" Hg
Pressure 994.6 hPa
Elevation 35
METAR CYBD 211700Z 24004KT 210V290 2SM -SN OVC015 00/00 A2936 RMK SC8 EQPT ON RWY SLP946
Observed Flight Rules
Jan-21 @ 17:00 UTC
(59 minutes ago)
IFR
Wind Visibility
240° at 4 knots 2 miles
Clouds
  • Overcast at 1,500' AGL
Conditions
  • Light Snow
Temperature Dewpoint
0°C / 32°F 0°C / 32°F
Humidity Altimeter Pressure
100% 29.36" Hg 994.6 hPa